sensor_id;sensor_type;location;lat;lon;timestamp;P1;P2;P0
84436;PMS1003;74664;45.620;5.138;2024-03-06T00:00:42;3.75;3.50;2.00
84436;PMS1003;74664;45.620;5.138;2024-03-06T00:03:08;5.50;4.25;2.50
84436;PMS1003;74664;45.620;5.138;2024-03-06T00:05:36;3.00;2.00;2.00
84436;PMS1003;74664;45.620;5.138;2024-03-06T00:08:03;2.00;2.00;1.75
84436;PMS1003;74664;45.620;5.138;2024-03-06T00:10:30;4.00;3.50;2.00
84436;PMS1003;74664;45.620;5.138;2024-03-06T00:12:57;12.00;10.25;8.25
84436;PMS1003;74664;45.620;5.138;2024-03-06T00:15:24;2.50;2.50;1.75
84436;PMS1003;74664;45.620;5.138;2024-03-06T00:17:50;4.75;3.50;2.00
84436;PMS1003;74664;45.620;5.138;2024-03-06T00:20:17;4.50;4.50;4.00
84436;PMS1003;74664;45.620;5.138;2024-03-06T00:22:45;2.00;2.00;1.50
84436;PMS1003;74664;45.620;5.138;2024-03-06T00:25:12;4.50;4.50;4.00
84436;PMS1003;74664;45.620;5.138;2024-03-06T00:27:39;13.25;8.75;5.50
84436;PMS1003;74664;45.620;5.138;2024-03-06T00:30:06;14.75;9.00;7.00
84436;PMS1003;74664;45.620;5.138;2024-03-06T00:32:33;11.25;11.00;9.00
84436;PMS1003;74664;45.620;5.138;2024-03-06T00:35:00;9.50;8.00;5.00
84436;PMS1003;74664;45.620;5.138;2024-03-06T00:37:27;5.25;5.25;5.00
84436;PMS1003;74664;45.620;5.138;2024-03-06T00:39:55;5.00;5.00;4.25
84436;PMS1003;74664;45.620;5.138;2024-03-06T00:42:21;7.75;6.25;5.00
84436;PMS1003;74664;45.620;5.138;2024-03-06T00:44:48;5.50;4.75;3.00
84436;PMS1003;74664;45.620;5.138;2024-03-06T00:47:15;4.25;3.50;2.00
84436;PMS1003;74664;45.620;5.138;2024-03-06T00:49:42;5.00;3.50;2.00
84436;PMS1003;74664;45.620;5.138;2024-03-06T00:52:09;5.00;5.00;4.50
84436;PMS1003;74664;45.620;5.138;2024-03-06T00:54:35;4.00;4.00;4.00
84436;PMS1003;74664;45.620;5.138;2024-03-06T00:57:03;2.00;2.00;1.50
84436;PMS1003;74664;45.620;5.138;2024-03-06T00:59:30;2.00;2.00;2.00
84436;PMS1003;74664;45.620;5.138;2024-03-06T01:01:57;4.50;4.50;3.00
84436;PMS1003;74664;45.620;5.138;2024-03-06T01:04:23;4.50;4.50;4.00
84436;PMS1003;74664;45.620;5.138;2024-03-06T01:06:50;2.50;2.50;2.00
84436;PMS1003;74664;45.620;5.138;2024-03-06T01:09:17;5.00;2.50;2.00
84436;PMS1003;74664;45.620;5.138;2024-03-06T01:11:44;4.25;4.25;2.50
84436;PMS1003;74664;45.620;5.138;2024-03-06T01:14:13;2.50;2.50;1.75
84436;PMS1003;74664;45.620;5.138;2024-03-06T01:16:40;2.00;2.00;1.75
84436;PMS1003;74664;45.620;5.138;2024-03-06T01:19:06;3.00;3.00;1.50
84436;PMS1003;74664;45.620;5.138;2024-03-06T01:21:33;2.00;2.00;1.75
84436;PMS1003;74664;45.620;5.138;2024-03-06T01:24:00;3.50;2.00;2.00
84436;PMS1003;74664;45.620;5.138;2024-03-06T01:26:27;2.00;2.00;2.00
84436;PMS1003;74664;45.620;5.138;2024-03-06T01:28:54;1.00;1.00;1.00
84436;PMS1003;74664;45.620;5.138;2024-03-06T01:31:22;2.00;2.00;2.00
84436;PMS1003;74664;45.620;5.138;2024-03-06T01:33:48;1.00;1.00;1.00
84436;PMS1003;74664;45.620;5.138;2024-03-06T01:36:15;3.50;3.50;2.00
84436;PMS1003;74664;45.620;5.138;2024-03-06T01:38:42;2.00;2.00;2.00
84436;PMS1003;74664;45.620;5.138;2024-03-06T01:41:11;2.00;2.00;2.00
84436;PMS1003;74664;45.620;5.138;2024-03-06T01:43:38;1.50;1.00;0.75
84436;PMS1003;74664;45.620;5.138;2024-03-06T01:46:04;2.00;1.00;0.75
84436;PMS1003;74664;45.620;5.138;2024-03-06T01:48:32;1.00;1.00;0.00
84436;PMS1003;74664;45.620;5.138;2024-03-06T01:51:01;1.00;1.00;1.00
84436;PMS1003;74664;45.620;5.138;2024-03-06T01:53:30;1.00;1.00;0.75
84436;PMS1003;74664;45.620;5.138;2024-03-06T01:55:59;1.00;1.00;1.00
84436;PMS1003;74664;45.620;5.138;2024-03-06T01:58:26;0.00;0.00;0.00
84436;PMS1003;74664;45.620;5.138;2024-03-06T02:00:54;1.50;1.25;1.00
84436;PMS1003;74664;45.620;5.138;2024-03-06T02:03:21;0.75;0.75;0.75
84436;PMS1003;74664;45.620;5.138;2024-03-06T02:05:49;1.25;1.25;1.25
84436;PMS1003;74664;45.620;5.138;2024-03-06T02:08:17;0.00;0.00;0.00
84436;PMS1003;74664;45.620;5.138;2024-03-06T02:10:44;0.00;0.00;0.00
84436;PMS1003;74664;45.620;5.138;2024-03-06T02:13:11;1.00;1.00;1.00
84436;PMS1003;74664;45.620;5.138;2024-03-06T02:15:39;0.25;0.25;0.25
84436;PMS1003;74664;45.620;5.138;2024-03-06T02:18:06;1.00;1.00;1.00
84436;PMS1003;74664;45.620;5.138;2024-03-06T02:20:35;1.25;1.25;1.00
84436;PMS1003;74664;45.620;5.138;2024-03-06T02:23:03;0.75;0.75;0.25
84436;PMS1003;74664;45.620;5.138;2024-03-06T02:25:30;0.25;0.25;0.00
84436;PMS1003;74664;45.620;5.138;2024-03-06T02:27:57;1.00;1.00;1.00
84436;PMS1003;74664;45.620;5.138;2024-03-06T02:30:24;1.00;1.00;0.25
84436;PMS1003;74664;45.620;5.138;2024-03-06T02:32:50;2.50;2.50;1.50
84436;PMS1003;74664;45.620;5.138;2024-03-06T02:35:17;0.00;0.00;0.00
84436;PMS1003;74664;45.620;5.138;2024-03-06T02:37:45;1.25;0.00;0.00
84436;PMS1003;74664;45.620;5.138;2024-03-06T02:40:12;2.00;2.00;1.50
84436;PMS1003;74664;45.620;5.138;2024-03-06T02:42:39;3.75;1.50;1.50
84436;PMS1003;74664;45.620;5.138;2024-03-06T02:45:06;1.00;1.00;0.75
84436;PMS1003;74664;45.620;5.138;2024-03-06T02:47:33;0.25;0.25;0.00
84436;PMS1003;74664;45.620;5.138;2024-03-06T02:50:00;4.00;1.50;1.00
84436;PMS1003;74664;45.620;5.138;2024-03-06T02:52:27;1.00;0.00;0.00
84436;PMS1003;74664;45.620;5.138;2024-03-06T02:54:55;0.00;0.00;0.00
84436;PMS1003;74664;45.620;5.138;2024-03-06T02:57:22;27.75;24.50;14.50
84436;PMS1003;74664;45.620;5.138;2024-03-06T02:59:49;1.00;1.00;0.00
84436;PMS1003;74664;45.620;5.138;2024-03-06T03:02:16;0.00;0.00;0.00
84436;PMS1003;74664;45.620;5.138;2024-03-06T03:04:43;1.00;1.00;1.00
84436;PMS1003;74664;45.620;5.138;2024-03-06T03:07:10;0.00;0.00;0.00
84436;PMS1003;74664;45.620;5.138;2024-03-06T03:09:37;0.00;0.00;0.00
84436;PMS1003;74664;45.620;5.138;2024-03-06T03:12:05;1.00;1.00;0.00
84436;PMS1003;74664;45.620;5.138;2024-03-06T03:14:32;0.00;0.00;0.00
84436;PMS1003;74664;45.620;5.138;2024-03-06T03:16:59;4.00;1.00;0.00
84436;PMS1003;74664;45.620;5.138;2024-03-06T03:19:26;0.00;0.00;0.00
84436;PMS1003;74664;45.620;5.138;2024-03-06T03:21:52;0.00;0.00;0.00
84436;PMS1003;74664;45.620;5.138;2024-03-06T03:24:19;0.00;0.00;0.00
84436;PMS1003;74664;45.620;5.138;2024-03-06T03:26:46;0.00;0.00;0.00
84436;PMS1003;74664;45.620;5.138;2024-03-06T03:29:14;0.00;0.00;0.00
84436;PMS1003;74664;45.620;5.138;2024-03-06T03:31:41;0.00;0.00;0.00
84436;PMS1003;74664;45.620;5.138;2024-03-06T03:34:08;0.00;0.00;0.00
84436;PMS1003;74664;45.620;5.138;2024-03-06T03:36:39;0.00;0.00;0.00
84436;PMS1003;74664;45.620;5.138;2024-03-06T03:39:06;0.00;0.00;0.00
84436;PMS1003;74664;45.620;5.138;2024-03-06T03:41:38;1.75;0.00;0.00
84436;PMS1003;74664;45.620;5.138;2024-03-06T03:44:08;1.25;0.75;0.00
84436;PMS1003;74664;45.620;5.138;2024-03-06T03:46:36;0.75;0.75;0.50
84436;PMS1003;74664;45.620;5.138;2024-03-06T03:49:03;0.00;0.00;0.00
84436;PMS1003;74664;45.620;5.138;2024-03-06T03:51:29;0.25;0.25;0.25
84436;PMS1003;74664;45.620;5.138;2024-03-06T03:53:56;0.00;0.00;0.00
84436;PMS1003;74664;45.620;5.138;2024-03-06T03:56:23;0.00;0.00;0.00
84436;PMS1003;74664;45.620;5.138;2024-03-06T03:58:49;0.00;0.00;0.00
84436;PMS1003;74664;45.620;5.138;2024-03-06T04:01:16;1.00;1.00;1.00
84436;PMS1003;74664;45.620;5.138;2024-03-06T04:03:44;0.00;0.00;0.00
84436;PMS1003;74664;45.620;5.138;2024-03-06T04:06:11;0.00;0.00;0.00
84436;PMS1003;74664;45.620;5.138;2024-03-06T04:08:37;0.50;0.50;0.00
84436;PMS1003;74664;45.620;5.138;2024-03-06T04:11:04;1.00;0.00;0.00
84436;PMS1003;74664;45.620;5.138;2024-03-06T04:13:30;0.00;0.00;0.00
84436;PMS1003;74664;45.620;5.138;2024-03-06T04:16:02;0.00;0.00;0.00
84436;PMS1003;74664;45.620;5.138;2024-03-06T04:18:29;0.00;0.00;0.00
84436;PMS1003;74664;45.620;5.138;2024-03-06T04:21:00;0.00;0.00;0.00
84436;PMS1003;74664;45.620;5.138;2024-03-06T04:23:30;0.00;0.00;0.00
84436;PMS1003;74664;45.620;5.138;2024-03-06T04:25:56;0.00;0.00;0.00
84436;PMS1003;74664;45.620;5.138;2024-03-06T04:28:23;0.50;0.50;0.00
84436;PMS1003;74664;45.620;5.138;2024-03-06T04:30:50;1.00;1.00;0.00
84436;PMS1003;74664;45.620;5.138;2024-03-06T04:33:16;1.00;1.00;0.50
84436;PMS1003;74664;45.620;5.138;2024-03-06T04:35:43;1.00;1.00;0.25
84436;PMS1003;74664;45.620;5.138;2024-03-06T04:38:11;0.00;0.00;0.00
84436;PMS1003;74664;45.620;5.138;2024-03-06T04:40:39;0.00;0.00;0.00
84436;PMS1003;74664;45.620;5.138;2024-03-06T04:43:05;1.00;1.00;0.50
84436;PMS1003;74664;45.620;5.138;2024-03-06T04:45:32;0.75;0.75;0.75
84436;PMS1003;74664;45.620;5.138;2024-03-06T04:47:59;0.50;0.50;0.00
84436;PMS1003;74664;45.620;5.138;2024-03-06T04:50:26;0.00;0.00;0.00
84436;PMS1003;74664;45.620;5.138;2024-03-06T04:52:53;0.00;0.00;0.00
84436;PMS1003;74664;45.620;5.138;2024-03-06T04:55:22;0.75;0.00;0.00
84436;PMS1003;74664;45.620;5.138;2024-03-06T04:57:50;0.75;0.00;0.00
84436;PMS1003;74664;45.620;5.138;2024-03-06T05:00:18;1.00;1.00;0.75
84436;PMS1003;74664;45.620;5.138;2024-03-06T05:02:44;1.00;1.00;1.00
84436;PMS1003;74664;45.620;5.138;2024-03-06T05:05:11;1.00;1.00;1.00
84436;PMS1003;74664;45.620;5.138;2024-03-06T05:07:38;5.00;4.00;2.00
84436;PMS1003;74664;45.620;5.138;2024-03-06T05:10:05;2.00;2.00;2.00
84436;PMS1003;74664;45.620;5.138;2024-03-06T05:12:35;7.25;7.25;5.00
84436;PMS1003;74664;45.620;5.138;2024-03-06T05:15:02;11.75;10.00;8.50
84436;PMS1003;74664;45.620;5.138;2024-03-06T05:17:29;11.00;9.00;8.00
84436;PMS1003;74664;45.620;5.138;2024-03-06T05:19:55;11.25;8.75;8.25
84436;PMS1003;74664;45.620;5.138;2024-03-06T05:22:22;14.25;11.00;8.50
84436;PMS1003;74664;45.620;5.138;2024-03-06T05:24:49;10.50;10.00;8.50
84436;PMS1003;74664;45.620;5.138;2024-03-06T05:27:15;17.75;16.25;12.00
84436;PMS1003;74664;45.620;5.138;2024-03-06T05:29:44;23.00;20.25;15.00
84436;PMS1003;74664;45.620;5.138;2024-03-06T05:32:11;17.75;15.75;12.00
84436;PMS1003;74664;45.620;5.138;2024-03-06T05:34:38;12.00;11.25;9.00
84436;PMS1003;74664;45.620;5.138;2024-03-06T05:37:04;9.75;9.75;8.00
84436;PMS1003;74664;45.620;5.138;2024-03-06T05:39:31;14.25;14.25;11.00
84436;PMS1003;74664;45.620;5.138;2024-03-06T05:42:01;7.75;7.75;5.00
84436;PMS1003;74664;45.620;5.138;2024-03-06T05:44:29;12.75;10.25;8.50
84436;PMS1003;74664;45.620;5.138;2024-03-06T05:46:58;18.00;13.00;9.75
84436;PMS1003;74664;45.620;5.138;2024-03-06T05:49:26;11.00;10.00;8.75
84436;PMS1003;74664;45.620;5.138;2024-03-06T05:51:53;11.50;11.50;9.00
84436;PMS1003;74664;45.620;5.138;2024-03-06T05:54:20;4.00;4.00;2.00
84436;PMS1003;74664;45.620;5.138;2024-03-06T05:56:47;5.00;5.00;4.75
84436;PMS1003;74664;45.620;5.138;2024-03-06T05:59:15;4.00;2.50;2.00
84436;PMS1003;74664;45.620;5.138;2024-03-06T06:01:41;3.00;1.50;1.00
84436;PMS1003;74664;45.620;5.138;2024-03-06T06:04:10;2.00;2.00;1.75
84436;PMS1003;74664;45.620;5.138;2024-03-06T06:06:38;2.00;2.00;1.50
84436;PMS1003;74664;45.620;5.138;2024-03-06T06:09:05;2.00;2.00;1.00
84436;PMS1003;74664;45.620;5.138;2024-03-06T06:11:32;1.75;1.00;1.00
84436;PMS1003;74664;45.620;5.138;2024-03-06T06:13:59;0.00;0.00;0.00
84436;PMS1003;74664;45.620;5.138;2024-03-06T06:16:26;7.00;5.00;4.00
84436;PMS1003;74664;45.620;5.138;2024-03-06T06:18:52;8.00;7.00;4.50
84436;PMS1003;74664;45.620;5.138;2024-03-06T06:21:20;8.00;6.50;4.75
84436;PMS1003;74664;45.620;5.138;2024-03-06T06:23:47;16.50;14.50;11.25
84436;PMS1003;74664;45.620;5.138;2024-03-06T06:26:14;23.50;22.00;17.50
84436;PMS1003;74664;45.620;5.138;2024-03-06T06:28:40;26.25;23.25;18.25
84436;PMS1003;74664;45.620;5.138;2024-03-06T06:31:07;55.00;47.00;31.00
84436;PMS1003;74664;45.620;5.138;2024-03-06T06:33:34;50.33;44.33;30.33
84436;PMS1003;74664;45.620;5.138;2024-03-06T06:36:00;34.75;29.25;20.00
84436;PMS1003;74664;45.620;5.138;2024-03-06T06:38:28;26.25;24.75;20.50
84436;PMS1003;74664;45.620;5.138;2024-03-06T06:40:55;27.00;25.00;14.50
84436;PMS1003;74664;45.620;5.138;2024-03-06T06:43:22;27.50;24.50;17.50
84436;PMS1003;74664;45.620;5.138;2024-03-06T06:45:49;28.50;22.75;18.50
84436;PMS1003;74664;45.620;5.138;2024-03-06T06:48:15;21.00;21.00;15.50
84436;PMS1003;74664;45.620;5.138;2024-03-06T06:50:43;27.25;23.50;16.50
84436;PMS1003;74664;45.620;5.138;2024-03-06T06:53:12;14.00;14.00;12.00
84436;PMS1003;74664;45.620;5.138;2024-03-06T06:55:40;27.00;22.00;15.25
84436;PMS1003;74664;45.620;5.138;2024-03-06T06:58:07;18.25;18.25;12.00
84436;PMS1003;74664;45.620;5.138;2024-03-06T07:00:34;12.00;12.00;8.25
84436;PMS1003;74664;45.620;5.138;2024-03-06T07:03:02;11.50;11.50;9.25
84436;PMS1003;74664;45.620;5.138;2024-03-06T07:05:29;11.00;11.00;8.75
84436;PMS1003;74664;45.620;5.138;2024-03-06T07:07:56;11.50;11.25;8.50
84436;PMS1003;74664;45.620;5.138;2024-03-06T07:10:22;14.50;12.00;10.75
84436;PMS1003;74664;45.620;5.138;2024-03-06T07:12:51;13.00;13.00;10.25
84436;PMS1003;74664;45.620;5.138;2024-03-06T07:15:17;18.25;16.25;12.00
84436;PMS1003;74664;45.620;5.138;2024-03-06T07:17:44;16.00;16.00;13.50
84436;PMS1003;74664;45.620;5.138;2024-03-06T07:20:11;13.25;12.75;8.50
84436;PMS1003;74664;45.620;5.138;2024-03-06T07:22:39;16.25;12.00;9.00
84436;PMS1003;74664;45.620;5.138;2024-03-06T07:25:06;12.00;11.00;8.00
84436;PMS1003;74664;45.620;5.138;2024-03-06T07:27:32;11.50;11.00;7.75
84436;PMS1003;74664;45.620;5.138;2024-03-06T07:30:01;13.50;12.75;9.75
84436;PMS1003;74664;45.620;5.138;2024-03-06T07:32:27;15.25;13.50;9.50
84436;PMS1003;74664;45.620;5.138;2024-03-06T07:34:54;7.50;7.50;5.75
84436;PMS1003;74664;45.620;5.138;2024-03-06T07:37:21;7.50;7.25;6.75
84436;PMS1003;74664;45.620;5.138;2024-03-06T07:39:47;8.00;8.00;6.00
84436;PMS1003;74664;45.620;5.138;2024-03-06T07:42:14;8.00;8.00;7.50
84436;PMS1003;74664;45.620;5.138;2024-03-06T07:44:43;14.25;11.00;8.75
84436;PMS1003;74664;45.620;5.138;2024-03-06T07:47:11;9.50;9.50;7.00
84436;PMS1003;74664;45.620;5.138;2024-03-06T07:49:39;11.00;11.00;8.75
84436;PMS1003;74664;45.620;5.138;2024-03-06T07:52:06;9.50;9.00;8.00
84436;PMS1003;74664;45.620;5.138;2024-03-06T07:54:32;12.50;11.50;9.00
84436;PMS1003;74664;45.620;5.138;2024-03-06T07:56:59;16.00;13.25;9.50
84436;PMS1003;74664;45.620;5.138;2024-03-06T07:59:26;5.75;5.75;4.50
84436;PMS1003;74664;45.620;5.138;2024-03-06T08:01:53;6.75;6.75;4.75
84436;PMS1003;74664;45.620;5.138;2024-03-06T08:04:22;15.50;13.75;9.75
84436;PMS1003;74664;45.620;5.138;2024-03-06T08:06:48;11.00;10.75;8.00
84436;PMS1003;74664;45.620;5.138;2024-03-06T08:09:15;11.00;11.00;9.00
84436;PMS1003;74664;45.620;5.138;2024-03-06T08:11:44;8.25;8.00;6.25
84436;PMS1003;74664;45.620;5.138;2024-03-06T08:14:11;4.00;4.00;3.00
84436;PMS1003;74664;45.620;5.138;2024-03-06T08:16:39;5.00;4.25;4.00
84436;PMS1003;74664;45.620;5.138;2024-03-06T08:19:06;3.50;3.50;2.00
84436;PMS1003;74664;45.620;5.138;2024-03-06T08:21:34;2.00;2.00;1.25
84436;PMS1003;74664;45.620;5.138;2024-03-06T08:24:01;4.25;4.25;4.00
84436;PMS1003;74664;45.620;5.138;2024-03-06T08:26:27;1.00;1.00;1.00
84436;PMS1003;74664;45.620;5.138;2024-03-06T08:28:54;2.00;2.00;2.00
84436;PMS1003;74664;45.620;5.138;2024-03-06T08:31:21;1.00;1.00;1.00
84436;PMS1003;74664;45.620;5.138;2024-03-06T08:33:47;0.00;0.00;0.00
84436;PMS1003;74664;45.620;5.138;2024-03-06T08:36:14;4.00;1.75;1.25
84436;PMS1003;74664;45.620;5.138;2024-03-06T08:38:42;2.00;2.00;1.00
84436;PMS1003;74664;45.620;5.138;2024-03-06T08:41:09;1.00;1.00;1.00
84436;PMS1003;74664;45.620;5.138;2024-03-06T08:43:35;1.00;1.00;0.50
84436;PMS1003;74664;45.620;5.138;2024-03-06T08:46:02;1.00;1.00;1.00
84436;PMS1003;74664;45.620;5.138;2024-03-06T08:48:29;1.00;1.00;1.00
84436;PMS1003;74664;45.620;5.138;2024-03-06T08:50:56;1.00;1.00;0.00
84436;PMS1003;74664;45.620;5.138;2024-03-06T08:53:22;1.25;0.00;0.00
84436;PMS1003;74664;45.620;5.138;2024-03-06T08:55:51;0.50;0.50;0.25
84436;PMS1003;74664;45.620;5.138;2024-03-06T08:58:17;1.75;1.00;1.00
84436;PMS1003;74664;45.620;5.138;2024-03-06T09:00:45;1.75;0.75;0.75
84436;PMS1003;74664;45.620;5.138;2024-03-06T09:03:13;1.00;1.00;0.50
84436;PMS1003;74664;45.620;5.138;2024-03-06T09:05:40;0.75;0.75;0.75
84436;PMS1003;74664;45.620;5.138;2024-03-06T09:08:07;1.75;1.75;1.75
84436;PMS1003;74664;45.620;5.138;2024-03-06T09:10:34;1.75;1.00;1.00
84436;PMS1003;74664;45.620;5.138;2024-03-06T09:13:02;4.75;2.00;2.00
84436;PMS1003;74664;45.620;5.138;2024-03-06T09:15:30;1.00;1.00;1.00
84436;PMS1003;74664;45.620;5.138;2024-03-06T09:17:56;2.50;1.00;0.00
84436;PMS1003;74664;45.620;5.138;2024-03-06T09:20:23;0.50;0.50;0.00
84436;PMS1003;74664;45.620;5.138;2024-03-06T09:22:49;0.00;0.00;0.00
84436;PMS1003;74664;45.620;5.138;2024-03-06T09:25:19;4.00;4.00;2.50
84436;PMS1003;74664;45.620;5.138;2024-03-06T09:27:45;1.75;1.00;0.00
84436;PMS1003;74664;45.620;5.138;2024-03-06T09:30:14;1.00;1.00;1.00
84436;PMS1003;74664;45.620;5.138;2024-03-06T09:32:42;2.00;2.00;1.75
84436;PMS1003;74664;45.620;5.138;2024-03-06T09:35:09;1.25;0.00;0.00
84436;PMS1003;74664;45.620;5.138;2024-03-06T09:37:36;0.00;0.00;0.00
84436;PMS1003;74664;45.620;5.138;2024-03-06T09:40:02;0.00;0.00;0.00
84436;PMS1003;74664;45.620;5.138;2024-03-06T09:42:30;0.00;0.00;0.00
84436;PMS1003;74664;45.620;5.138;2024-03-06T09:44:56;0.00;0.00;0.00
84436;PMS1003;74664;45.620;5.138;2024-03-06T09:47:24;0.25;0.25;0.25
84436;PMS1003;74664;45.620;5.138;2024-03-06T09:49:56;0.00;0.00;0.00
84436;PMS1003;74664;45.620;5.138;2024-03-06T09:52:23;1.00;1.00;0.00
84436;PMS1003;74664;45.620;5.138;2024-03-06T09:54:50;2.00;2.00;1.00
84436;PMS1003;74664;45.620;5.138;2024-03-06T09:57:18;0.00;0.00;0.00
84436;PMS1003;74664;45.620;5.138;2024-03-06T09:59:45;0.50;0.50;0.00
84436;PMS1003;74664;45.620;5.138;2024-03-06T10:02:16;4.00;1.00;1.00
84436;PMS1003;74664;45.620;5.138;2024-03-06T10:04:56;0.00;0.00;0.00
84436;PMS1003;74664;45.620;5.138;2024-03-06T10:07:23;0.00;0.00;0.00
84436;PMS1003;74664;45.620;5.138;2024-03-06T10:09:51;1.00;1.00;0.75
84436;PMS1003;74664;45.620;5.138;2024-03-06T10:12:18;1.00;1.00;1.00
84436;PMS1003;74664;45.620;5.138;2024-03-06T10:14:51;0.00;0.00;0.00
84436;PMS1003;74664;45.620;5.138;2024-03-06T10:17:19;0.00;0.00;0.00
84436;PMS1003;74664;45.620;5.138;2024-03-06T10:19:48;0.00;0.00;0.00
84436;PMS1003;74664;45.620;5.138;2024-03-06T10:22:18;0.75;0.75;0.75
84436;PMS1003;74664;45.620;5.138;2024-03-06T10:24:45;0.00;0.00;0.00
84436;PMS1003;74664;45.620;5.138;2024-03-06T10:27:14;0.00;0.00;0.00
84436;PMS1003;74664;45.620;5.138;2024-03-06T10:29:43;0.50;0.50;0.50
84436;PMS1003;74664;45.620;5.138;2024-03-06T10:32:09;0.00;0.00;0.00
84436;PMS1003;74664;45.620;5.138;2024-03-06T10:34:37;0.75;0.75;0.75
84436;PMS1003;74664;45.620;5.138;2024-03-06T10:37:05;1.00;1.00;1.00
84436;PMS1003;74664;45.620;5.138;2024-03-06T10:39:34;1.50;0.00;0.00
84436;PMS1003;74664;45.620;5.138;2024-03-06T10:42:03;0.00;0.00;0.00
84436;PMS1003;74664;45.620;5.138;2024-03-06T10:44:34;0.00;0.00;0.00
84436;PMS1003;74664;45.620;5.138;2024-03-06T10:47:02;0.00;0.00;0.00
84436;PMS1003;74664;45.620;5.138;2024-03-06T10:49:32;1.00;1.00;0.25
84436;PMS1003;74664;45.620;5.138;2024-03-06T10:51:59;0.00;0.00;0.00
84436;PMS1003;74664;45.620;5.138;2024-03-06T10:54:30;0.00;0.00;0.00
84436;PMS1003;74664;45.620;5.138;2024-03-06T10:56:58;1.00;1.00;0.75
84436;PMS1003;74664;45.620;5.138;2024-03-06T10:59:25;0.00;0.00;0.00
84436;PMS1003;74664;45.620;5.138;2024-03-06T11:01:57;0.00;0.00;0.00
84436;PMS1003;74664;45.620;5.138;2024-03-06T11:04:25;1.25;0.00;0.00
84436;PMS1003;74664;45.620;5.138;2024-03-06T11:06:55;0.00;0.00;0.00
84436;PMS1003;74664;45.620;5.138;2024-03-06T11:09:21;1.00;1.00;1.00
84436;PMS1003;74664;45.620;5.138;2024-03-06T11:11:49;2.00;1.00;0.75
84436;PMS1003;74664;45.620;5.138;2024-03-06T11:14:19;1.00;1.00;0.50
84436;PMS1003;74664;45.620;5.138;2024-03-06T11:16:57;0.00;0.00;0.00
84436;PMS1003;74664;45.620;5.138;2024-03-06T11:19:28;1.00;1.00;1.00
84436;PMS1003;74664;45.620;5.138;2024-03-06T11:21:56;3.00;2.00;1.25
84436;PMS1003;74664;45.620;5.138;2024-03-06T11:24:23;1.75;1.00;1.00
84436;PMS1003;74664;45.620;5.138;2024-03-06T11:26:50;7.25;1.00;1.00
84436;PMS1003;74664;45.620;5.138;2024-03-06T11:29:27;2.50;2.50;2.00
84436;PMS1003;74664;45.620;5.138;2024-03-06T11:32:04;0.75;0.75;0.75
84436;PMS1003;74664;45.620;5.138;2024-03-06T11:34:36;5.25;4.50;2.50
84436;PMS1003;74664;45.620;5.138;2024-03-06T11:37:03;0.25;0.00;0.00
84436;PMS1003;74664;45.620;5.138;2024-03-06T11:39:35;0.00;0.00;0.00
84436;PMS1003;74664;45.620;5.138;2024-03-06T11:42:04;1.00;1.00;1.00
84436;PMS1003;74664;45.620;5.138;2024-03-06T11:44:34;1.25;1.25;1.00
84436;PMS1003;74664;45.620;5.138;2024-03-06T11:47:01;1.75;1.75;1.00
84436;PMS1003;74664;45.620;5.138;2024-03-06T11:49:29;3.25;0.25;0.00
84436;PMS1003;74664;45.620;5.138;2024-03-06T11:51:59;2.00;0.00;0.00
84436;PMS1003;74664;45.620;5.138;2024-03-06T11:54:27;0.00;0.00;0.00
84436;PMS1003;74664;45.620;5.138;2024-03-06T11:56:55;1.00;1.00;0.00
84436;PMS1003;74664;45.620;5.138;2024-03-06T11:59:22;0.50;0.50;0.50
84436;PMS1003;74664;45.620;5.138;2024-03-06T12:01:51;0.00;0.00;0.00
84436;PMS1003;74664;45.620;5.138;2024-03-06T12:04:19;1.00;1.00;0.00
84436;PMS1003;74664;45.620;5.138;2024-03-06T12:06:46;0.00;0.00;0.00
84436;PMS1003;74664;45.620;5.138;2024-03-06T12:09:13;0.25;0.25;0.25
84436;PMS1003;74664;45.620;5.138;2024-03-06T12:11:40;0.00;0.00;0.00
84436;PMS1003;74664;45.620;5.138;2024-03-06T12:14:12;1.00;1.00;1.00
84436;PMS1003;74664;45.620;5.138;2024-03-06T12:16:41;0.00;0.00;0.00
84436;PMS1003;74664;45.620;5.138;2024-03-06T12:19:09;2.25;1.75;1.25
84436;PMS1003;74664;45.620;5.138;2024-03-06T12:21:36;0.00;0.00;0.00
84436;PMS1003;74664;45.620;5.138;2024-03-06T12:24:06;0.00;0.00;0.00
84436;PMS1003;74664;45.620;5.138;2024-03-06T12:26:34;0.00;0.00;0.00
84436;PMS1003;74664;45.620;5.138;2024-03-06T12:29:07;0.00;0.00;0.00
84436;PMS1003;74664;45.620;5.138;2024-03-06T12:31:35;0.50;0.00;0.00
84436;PMS1003;74664;45.620;5.138;2024-03-06T12:34:04;0.00;0.00;0.00
84436;PMS1003;74664;45.620;5.138;2024-03-06T12:36:32;1.00;1.00;1.00
84436;PMS1003;74664;45.620;5.138;2024-03-06T12:39:00;0.00;0.00;0.00
84436;PMS1003;74664;45.620;5.138;2024-03-06T12:41:28;0.00;0.00;0.00
84436;PMS1003;74664;45.620;5.138;2024-03-06T12:43:55;0.00;0.00;0.00
84436;PMS1003;74664;45.620;5.138;2024-03-06T12:46:22;0.00;0.00;0.00
84436;PMS1003;74664;45.620;5.138;2024-03-06T12:48:51;0.00;0.00;0.00
84436;PMS1003;74664;45.620;5.138;2024-03-06T12:51:18;0.00;0.00;0.00
84436;PMS1003;74664;45.620;5.138;2024-03-06T12:53:46;0.00;0.00;0.00
84436;PMS1003;74664;45.620;5.138;2024-03-06T12:56:13;0.00;0.00;0.00
84436;PMS1003;74664;45.620;5.138;2024-03-06T12:58:40;0.00;0.00;0.00
84436;PMS1003;74664;45.620;5.138;2024-03-06T13:01:06;0.00;0.00;0.00
84436;PMS1003;74664;45.620;5.138;2024-03-06T13:03:33;0.00;0.00;0.00
84436;PMS1003;74664;45.620;5.138;2024-03-06T13:05:59;1.00;1.00;0.50
84436;PMS1003;74664;45.620;5.138;2024-03-06T13:08:26;0.00;0.00;0.00
84436;PMS1003;74664;45.620;5.138;2024-03-06T13:10:54;0.00;0.00;0.00
84436;PMS1003;74664;45.620;5.138;2024-03-06T13:13:21;0.00;0.00;0.00
84436;PMS1003;74664;45.620;5.138;2024-03-06T13:15:49;1.25;0.00;0.00
84436;PMS1003;74664;45.620;5.138;2024-03-06T13:18:16;1.75;0.00;0.00
84436;PMS1003;74664;45.620;5.138;2024-03-06T13:20:43;0.00;0.00;0.00
84436;PMS1003;74664;45.620;5.138;2024-03-06T13:23:10;0.00;0.00;0.00
84436;PMS1003;74664;45.620;5.138;2024-03-06T13:25:37;0.00;0.00;0.00
84436;PMS1003;74664;45.620;5.138;2024-03-06T13:28:05;0.00;0.00;0.00
84436;PMS1003;74664;45.620;5.138;2024-03-06T13:30:32;0.00;0.00;0.00
84436;PMS1003;74664;45.620;5.138;2024-03-06T13:32:58;0.00;0.00;0.00
84436;PMS1003;74664;45.620;5.138;2024-03-06T13:35:25;0.00;0.00;0.00
84436;PMS1003;74664;45.620;5.138;2024-03-06T13:37:52;0.00;0.00;0.00
84436;PMS1003;74664;45.620;5.138;2024-03-06T13:40:19;0.00;0.00;0.00
84436;PMS1003;74664;45.620;5.138;2024-03-06T13:42:45;0.00;0.00;0.00
84436;PMS1003;74664;45.620;5.138;2024-03-06T13:45:13;0.00;0.00;0.00
84436;PMS1003;74664;45.620;5.138;2024-03-06T13:47:41;0.00;0.00;0.00
84436;PMS1003;74664;45.620;5.138;2024-03-06T13:50:09;0.25;0.00;0.00
84436;PMS1003;74664;45.620;5.138;2024-03-06T13:52:37;0.00;0.00;0.00
84436;PMS1003;74664;45.620;5.138;2024-03-06T13:55:05;0.00;0.00;0.00
84436;PMS1003;74664;45.620;5.138;2024-03-06T13:57:33;0.00;0.00;0.00
84436;PMS1003;74664;45.620;5.138;2024-03-06T13:59:59;0.00;0.00;0.00
84436;PMS1003;74664;45.620;5.138;2024-03-06T14:02:28;1.00;0.00;0.00
84436;PMS1003;74664;45.620;5.138;2024-03-06T14:04:54;0.00;0.00;0.00
84436;PMS1003;74664;45.620;5.138;2024-03-06T14:07:21;0.00;0.00;0.00
84436;PMS1003;74664;45.620;5.138;2024-03-06T14:09:48;0.00;0.00;0.00
84436;PMS1003;74664;45.620;5.138;2024-03-06T14:12:15;0.00;0.00;0.00
84436;PMS1003;74664;45.620;5.138;2024-03-06T14:14:42;0.00;0.00;0.00
84436;PMS1003;74664;45.620;5.138;2024-03-06T14:17:10;0.00;0.00;0.00
84436;PMS1003;74664;45.620;5.138;2024-03-06T14:19:38;0.00;0.00;0.00